This is the latest recevied weather packets stored in our database for station/object 9A7DI-13. If no packets are shown the sender has not sent any weather packets the latest 10 day(s).
| Time | Temp. | Humidity | Pressure | Rain* | Wind** | Luminosity | Snow |
|---|---|---|---|---|---|---|---|
| 1777191445 | 23.33° C | 25% | 1026.9 hPa | - | - | - | - |
| 1777190844 | 22.78° C | 27% | 1026.8 hPa | - | - | - | - |
| 1777190244 | 22.78° C | 27% | 1026.8 hPa | - | - | - | - |
| 1777189644 | 22.22° C | 29% | 1026.6 hPa | - | - | - | - |
| 1777189044 | 21.67° C | 29% | 1026.6 hPa | - | - | - | - |
| 1777188445 | 21.11° C | 31% | 1026.5 hPa | - | - | - | - |
| 1777187844 | 21.11° C | 28% | 1026.4 hPa | - | - | - | - |
| 1777187245 | 21.11° C | 29% | 1026.2 hPa | - | - | - | - |
| 1777186644 | 20.56° C | 32% | 1026.1 hPa | - | - | - | - |
| 1777186044 | 20.56° C | 31% | 1025.9 hPa | - | - | - | - |
| 1777185445 | 20° C | 35% | 1025.8 hPa | - | - | - | - |
| 1777184845 | 19.44° C | 38% | 1025.8 hPa | - | - | - | - |
| 1777184245 | 18.89° C | 46% | 1025.7 hPa | - | - | - | - |
| 1777183645 | 17.78° C | 50% | 1025.6 hPa | - | - | - | - |
| 1777183045 | 16.67° C | 53% | 1025.4 hPa | - | - | - | - |
| 1777182445 | 15.56° C | 57% | 1025.3 hPa | - | - | - | - |
| 1777181845 | 13.89° C | 60% | 1025.1 hPa | - | - | - | - |
| 1777181245 | 13.33° C | 61% | 1025 hPa | - | - | - | - |
| 1777180645 | 11.67° C | 62% | 1024.9 hPa | - | - | - | - |
| 1777180045 | 10.56° C | 65% | 1024.8 hPa | - | - | - | - |
| 1777179445 | 10.56° C | 65% | 1024.6 hPa | - | - | - | - |
| 1777178845 | 10.56° C | 65% | 1024.3 hPa | - | - | - | - |
| 1777178246 | 10° C | 67% | 1024.2 hPa | - | - | - | - |
| 1777177645 | 8.89° C | 70% | 1024.1 hPa | - | - | - | - |
| 1777177045 | 7.78° C | 73% | 1024 hPa | - | - | - | - |
* Rain since midnight (hover to see other rain measurements)
** Current wind speed in m/s (hover to see current wind gust speed)